sensor_id;sensor_type;location;lat;lon;timestamp;P1;durP1;ratioP1;P2;durP2;ratioP2
29938;SDS011;16799;50.844;5.304;2023-03-11T00:01:41;20.67;;;4.70;;
29938;SDS011;16799;50.844;5.304;2023-03-11T00:04:06;9.40;;;4.03;;
29938;SDS011;16799;50.844;5.304;2023-03-11T00:06:35;9.27;;;3.93;;
29938;SDS011;16799;50.844;5.304;2023-03-11T00:09:01;7.87;;;3.67;;
29938;SDS011;16799;50.844;5.304;2023-03-11T00:11:26;5.13;;;3.87;;
29938;SDS011;16799;50.844;5.304;2023-03-11T00:13:52;12.90;;;2.87;;
29938;SDS011;16799;50.844;5.304;2023-03-11T00:16:18;7.33;;;3.93;;
29938;SDS011;16799;50.844;5.304;2023-03-11T00:18:44;12.30;;;3.50;;
29938;SDS011;16799;50.844;5.304;2023-03-11T00:21:13;5.17;;;2.90;;
29938;SDS011;16799;50.844;5.304;2023-03-11T00:23:40;6.60;;;3.20;;
29938;SDS011;16799;50.844;5.304;2023-03-11T00:26:06;9.33;;;2.70;;
29938;SDS011;16799;50.844;5.304;2023-03-11T00:28:32;4.03;;;3.07;;
29938;SDS011;16799;50.844;5.304;2023-03-11T00:30:58;3.83;;;3.40;;
29938;SDS011;16799;50.844;5.304;2023-03-11T00:33:23;6.07;;;3.23;;
29938;SDS011;16799;50.844;5.304;2023-03-11T00:35:49;7.33;;;3.10;;
29938;SDS011;16799;50.844;5.304;2023-03-11T00:38:15;9.70;;;3.17;;
29938;SDS011;16799;50.844;5.304;2023-03-11T00:40:43;5.93;;;3.83;;
29938;SDS011;16799;50.844;5.304;2023-03-11T00:43:09;9.07;;;2.70;;
29938;SDS011;16799;50.844;5.304;2023-03-11T00:45:35;4.10;;;2.60;;
29938;SDS011;16799;50.844;5.304;2023-03-11T00:48:01;7.80;;;3.33;;
29938;SDS011;16799;50.844;5.304;2023-03-11T00:50:28;8.03;;;4.00;;
29938;SDS011;16799;50.844;5.304;2023-03-11T00:52:56;3.83;;;3.53;;
29938;SDS011;16799;50.844;5.304;2023-03-11T00:55:24;14.27;;;4.70;;
29938;SDS011;16799;50.844;5.304;2023-03-11T00:57:56;13.77;;;3.40;;
29938;SDS011;16799;50.844;5.304;2023-03-11T01:00:24;3.93;;;3.57;;
29938;SDS011;16799;50.844;5.304;2023-03-11T01:02:51;17.90;;;4.40;;
29938;SDS011;16799;50.844;5.304;2023-03-11T01:05:22;11.17;;;4.30;;
29938;SDS011;16799;50.844;5.304;2023-03-11T01:07:50;2.93;;;2.60;;
29938;SDS011;16799;50.844;5.304;2023-03-11T01:10:16;8.37;;;4.17;;
29938;SDS011;16799;50.844;5.304;2023-03-11T01:12:42;5.73;;;3.37;;
29938;SDS011;16799;50.844;5.304;2023-03-11T01:15:08;7.07;;;3.30;;
29938;SDS011;16799;50.844;5.304;2023-03-11T01:17:40;6.40;;;4.10;;
29938;SDS011;16799;50.844;5.304;2023-03-11T01:20:06;4.77;;;3.80;;
29938;SDS011;16799;50.844;5.304;2023-03-11T01:22:34;3.60;;;3.30;;
29938;SDS011;16799;50.844;5.304;2023-03-11T01:25:00;16.07;;;4.07;;
29938;SDS011;16799;50.844;5.304;2023-03-11T01:27:25;8.13;;;4.10;;
29938;SDS011;16799;50.844;5.304;2023-03-11T01:29:52;7.67;;;3.20;;
29938;SDS011;16799;50.844;5.304;2023-03-11T01:32:18;6.37;;;4.27;;
29938;SDS011;16799;50.844;5.304;2023-03-11T01:34:43;5.53;;;3.40;;
29938;SDS011;16799;50.844;5.304;2023-03-11T01:37:09;9.80;;;3.63;;
29938;SDS011;16799;50.844;5.304;2023-03-11T01:39:35;5.20;;;3.60;;
29938;SDS011;16799;50.844;5.304;2023-03-11T01:42:00;4.53;;;3.53;;
29938;SDS011;16799;50.844;5.304;2023-03-11T01:44:26;10.60;;;4.17;;
29938;SDS011;16799;50.844;5.304;2023-03-11T01:49:17;16.87;;;4.43;;
29938;SDS011;16799;50.844;5.304;2023-03-11T01:51:45;24.23;;;4.17;;
29938;SDS011;16799;50.844;5.304;2023-03-11T01:56:42;5.20;;;3.00;;
29938;SDS011;16799;50.844;5.304;2023-03-11T01:59:10;5.30;;;3.03;;
29938;SDS011;16799;50.844;5.304;2023-03-11T02:01:42;18.37;;;5.00;;
29938;SDS011;16799;50.844;5.304;2023-03-11T02:04:16;18.37;;;3.97;;
29938;SDS011;16799;50.844;5.304;2023-03-11T02:06:42;5.50;;;2.97;;
29938;SDS011;16799;50.844;5.304;2023-03-11T02:09:08;6.33;;;5.50;;
29938;SDS011;16799;50.844;5.304;2023-03-11T02:11:34;9.87;;;3.57;;
29938;SDS011;16799;50.844;5.304;2023-03-11T02:14:01;3.63;;;3.30;;
29938;SDS011;16799;50.844;5.304;2023-03-11T02:16:30;8.53;;;5.03;;
29938;SDS011;16799;50.844;5.304;2023-03-11T02:18:57;3.30;;;3.10;;
29938;SDS011;16799;50.844;5.304;2023-03-11T02:21:29;4.33;;;3.83;;
29938;SDS011;16799;50.844;5.304;2023-03-11T02:24:07;8.57;;;3.40;;
29938;SDS011;16799;50.844;5.304;2023-03-11T02:26:57;11.67;;;4.90;;
29938;SDS011;16799;50.844;5.304;2023-03-11T02:29:29;3.70;;;3.40;;
29938;SDS011;16799;50.844;5.304;2023-03-11T02:31:58;7.80;;;3.83;;
29938;SDS011;16799;50.844;5.304;2023-03-11T02:34:27;13.53;;;4.03;;
29938;SDS011;16799;50.844;5.304;2023-03-11T02:36:56;5.13;;;4.63;;
29938;SDS011;16799;50.844;5.304;2023-03-11T02:39:36;8.90;;;3.40;;
29938;SDS011;16799;50.844;5.304;2023-03-11T02:42:24;7.67;;;2.63;;
29938;SDS011;16799;50.844;5.304;2023-03-11T02:45:03;3.13;;;2.93;;
29938;SDS011;16799;50.844;5.304;2023-03-11T02:47:33;17.77;;;3.63;;
29938;SDS011;16799;50.844;5.304;2023-03-11T02:50:00;6.70;;;3.20;;
29938;SDS011;16799;50.844;5.304;2023-03-11T02:52:27;7.67;;;3.10;;
29938;SDS011;16799;50.844;5.304;2023-03-11T02:54:53;19.93;;;3.47;;
29938;SDS011;16799;50.844;5.304;2023-03-11T02:57:18;6.50;;;3.93;;
29938;SDS011;16799;50.844;5.304;2023-03-11T02:59:44;4.17;;;3.10;;
29938;SDS011;16799;50.844;5.304;2023-03-11T03:02:10;6.20;;;3.10;;
29938;SDS011;16799;50.844;5.304;2023-03-11T03:04:35;12.70;;;3.87;;
29938;SDS011;16799;50.844;5.304;2023-03-11T03:07:01;12.63;;;3.20;;
29938;SDS011;16799;50.844;5.304;2023-03-11T03:09:27;5.60;;;3.10;;
29938;SDS011;16799;50.844;5.304;2023-03-11T03:11:53;5.70;;;3.07;;
29938;SDS011;16799;50.844;5.304;2023-03-11T03:14:18;12.93;;;3.60;;
29938;SDS011;16799;50.844;5.304;2023-03-11T03:16:44;12.00;;;3.90;;
29938;SDS011;16799;50.844;5.304;2023-03-11T03:19:10;15.63;;;3.80;;
29938;SDS011;16799;50.844;5.304;2023-03-11T03:21:35;5.33;;;4.60;;
29938;SDS011;16799;50.844;5.304;2023-03-11T03:24:01;3.50;;;3.30;;
29938;SDS011;16799;50.844;5.304;2023-03-11T03:26:27;13.90;;;4.23;;
29938;SDS011;16799;50.844;5.304;2023-03-11T03:28:53;5.37;;;4.03;;
29938;SDS011;16799;50.844;5.304;2023-03-11T03:31:19;4.93;;;2.60;;
29938;SDS011;16799;50.844;5.304;2023-03-11T03:33:45;4.60;;;4.00;;
29938;SDS011;16799;50.844;5.304;2023-03-11T03:36:11;9.17;;;3.53;;
29938;SDS011;16799;50.844;5.304;2023-03-11T03:38:38;9.43;;;3.40;;
29938;SDS011;16799;50.844;5.304;2023-03-11T03:41:03;3.50;;;2.80;;
29938;SDS011;16799;50.844;5.304;2023-03-11T03:43:29;10.30;;;3.73;;
29938;SDS011;16799;50.844;5.304;2023-03-11T03:45:59;15.17;;;3.43;;
29938;SDS011;16799;50.844;5.304;2023-03-11T03:48:27;8.67;;;3.90;;
29938;SDS011;16799;50.844;5.304;2023-03-11T03:50:53;8.97;;;3.33;;
29938;SDS011;16799;50.844;5.304;2023-03-11T03:53:19;10.83;;;4.03;;
29938;SDS011;16799;50.844;5.304;2023-03-11T03:55:45;12.37;;;4.30;;
29938;SDS011;16799;50.844;5.304;2023-03-11T03:58:11;11.80;;;4.57;;
29938;SDS011;16799;50.844;5.304;2023-03-11T04:00:36;8.87;;;4.07;;
29938;SDS011;16799;50.844;5.304;2023-03-11T04:03:03;11.07;;;3.93;;
29938;SDS011;16799;50.844;5.304;2023-03-11T04:05:29;6.20;;;3.83;;
29938;SDS011;16799;50.844;5.304;2023-03-11T04:07:55;13.13;;;3.40;;
29938;SDS011;16799;50.844;5.304;2023-03-11T04:10:21;7.00;;;3.27;;
29938;SDS011;16799;50.844;5.304;2023-03-11T04:12:46;8.10;;;3.53;;
29938;SDS011;16799;50.844;5.304;2023-03-11T04:15:12;8.93;;;3.40;;
29938;SDS011;16799;50.844;5.304;2023-03-11T04:17:38;12.27;;;3.27;;
29938;SDS011;16799;50.844;5.304;2023-03-11T04:20:04;7.90;;;3.00;;
29938;SDS011;16799;50.844;5.304;2023-03-11T04:22:34;11.43;;;3.07;;
29938;SDS011;16799;50.844;5.304;2023-03-11T04:25:00;6.10;;;3.33;;
29938;SDS011;16799;50.844;5.304;2023-03-11T04:27:26;12.50;;;3.83;;
29938;SDS011;16799;50.844;5.304;2023-03-11T04:29:52;5.13;;;2.80;;
29938;SDS011;16799;50.844;5.304;2023-03-11T04:32:17;6.50;;;3.50;;
29938;SDS011;16799;50.844;5.304;2023-03-11T04:34:43;17.93;;;4.40;;
29938;SDS011;16799;50.844;5.304;2023-03-11T04:37:09;12.47;;;4.90;;
29938;SDS011;16799;50.844;5.304;2023-03-11T04:39:34;7.43;;;3.37;;
29938;SDS011;16799;50.844;5.304;2023-03-11T04:42:00;7.23;;;3.87;;
29938;SDS011;16799;50.844;5.304;2023-03-11T04:44:26;7.73;;;3.60;;
29938;SDS011;16799;50.844;5.304;2023-03-11T04:46:51;4.73;;;4.20;;
29938;SDS011;16799;50.844;5.304;2023-03-11T04:49:17;12.77;;;4.90;;
29938;SDS011;16799;50.844;5.304;2023-03-11T04:51:43;10.93;;;5.17;;
29938;SDS011;16799;50.844;5.304;2023-03-11T04:54:09;6.57;;;4.40;;
29938;SDS011;16799;50.844;5.304;2023-03-11T04:56:34;10.40;;;4.40;;
29938;SDS011;16799;50.844;5.304;2023-03-11T04:59:00;8.87;;;4.37;;
29938;SDS011;16799;50.844;5.304;2023-03-11T05:01:26;4.00;;;3.63;;
29938;SDS011;16799;50.844;5.304;2023-03-11T05:03:52;8.50;;;4.13;;
29938;SDS011;16799;50.844;5.304;2023-03-11T05:06:17;11.60;;;3.97;;
29938;SDS011;16799;50.844;5.304;2023-03-11T05:08:43;10.00;;;4.50;;
29938;SDS011;16799;50.844;5.304;2023-03-11T05:11:09;6.53;;;3.80;;
29938;SDS011;16799;50.844;5.304;2023-03-11T05:13:34;8.77;;;4.20;;
29938;SDS011;16799;50.844;5.304;2023-03-11T05:16:00;7.07;;;3.57;;
29938;SDS011;16799;50.844;5.304;2023-03-11T05:18:26;7.60;;;4.60;;
29938;SDS011;16799;50.844;5.304;2023-03-11T05:20:52;4.27;;;3.63;;
29938;SDS011;16799;50.844;5.304;2023-03-11T05:23:17;8.90;;;5.10;;
29938;SDS011;16799;50.844;5.304;2023-03-11T05:25:43;6.40;;;3.90;;
29938;SDS011;16799;50.844;5.304;2023-03-11T05:28:09;8.83;;;3.83;;
29938;SDS011;16799;50.844;5.304;2023-03-11T05:30:35;6.83;;;3.70;;
29938;SDS011;16799;50.844;5.304;2023-03-11T05:33:01;5.70;;;4.17;;
29938;SDS011;16799;50.844;5.304;2023-03-11T05:35:26;5.50;;;4.57;;
29938;SDS011;16799;50.844;5.304;2023-03-11T05:37:52;6.07;;;3.73;;
29938;SDS011;16799;50.844;5.304;2023-03-11T05:40:18;7.20;;;5.20;;
29938;SDS011;16799;50.844;5.304;2023-03-11T05:42:44;18.43;;;5.63;;
29938;SDS011;16799;50.844;5.304;2023-03-11T05:45:10;6.80;;;4.67;;
29938;SDS011;16799;50.844;5.304;2023-03-11T05:47:36;10.57;;;4.40;;
29938;SDS011;16799;50.844;5.304;2023-03-11T05:50:02;8.53;;;5.80;;
29938;SDS011;16799;50.844;5.304;2023-03-11T05:52:28;6.77;;;5.00;;
29938;SDS011;16799;50.844;5.304;2023-03-11T05:54:56;11.90;;;5.20;;
29938;SDS011;16799;50.844;5.304;2023-03-11T05:57:22;5.80;;;3.73;;
29938;SDS011;16799;50.844;5.304;2023-03-11T05:59:48;5.70;;;4.13;;
29938;SDS011;16799;50.844;5.304;2023-03-11T06:02:13;5.23;;;3.80;;
29938;SDS011;16799;50.844;5.304;2023-03-11T06:04:39;11.07;;;4.47;;
29938;SDS011;16799;50.844;5.304;2023-03-11T06:07:05;9.53;;;5.20;;
29938;SDS011;16799;50.844;5.304;2023-03-11T06:09:30;9.93;;;4.93;;
29938;SDS011;16799;50.844;5.304;2023-03-11T06:11:56;5.70;;;4.77;;
29938;SDS011;16799;50.844;5.304;2023-03-11T06:14:22;3.83;;;3.50;;
29938;SDS011;16799;50.844;5.304;2023-03-11T06:16:47;6.17;;;3.70;;
29938;SDS011;16799;50.844;5.304;2023-03-11T06:19:13;14.10;;;5.57;;
29938;SDS011;16799;50.844;5.304;2023-03-11T06:21:38;5.90;;;5.27;;
29938;SDS011;16799;50.844;5.304;2023-03-11T06:24:04;7.10;;;4.50;;
29938;SDS011;16799;50.844;5.304;2023-03-11T06:26:31;13.87;;;5.60;;
29938;SDS011;16799;50.844;5.304;2023-03-11T06:28:56;7.43;;;6.50;;
29938;SDS011;16799;50.844;5.304;2023-03-11T06:31:23;16.40;;;6.13;;
29938;SDS011;16799;50.844;5.304;2023-03-11T06:33:51;8.93;;;5.20;;
29938;SDS011;16799;50.844;5.304;2023-03-11T06:36:20;30.87;;;7.00;;
29938;SDS011;16799;50.844;5.304;2023-03-11T06:38:46;12.40;;;5.33;;
29938;SDS011;16799;50.844;5.304;2023-03-11T06:41:13;8.80;;;4.43;;
29938;SDS011;16799;50.844;5.304;2023-03-11T06:43:39;5.13;;;4.60;;
29938;SDS011;16799;50.844;5.304;2023-03-11T06:46:09;9.90;;;5.03;;
29938;SDS011;16799;50.844;5.304;2023-03-11T06:48:36;6.13;;;5.60;;
29938;SDS011;16799;50.844;5.304;2023-03-11T06:51:02;10.13;;;5.20;;
29938;SDS011;16799;50.844;5.304;2023-03-11T06:53:28;14.53;;;5.70;;
29938;SDS011;16799;50.844;5.304;2023-03-11T06:56:04;11.87;;;6.80;;
29938;SDS011;16799;50.844;5.304;2023-03-11T06:58:31;10.73;;;7.27;;
29938;SDS011;16799;50.844;5.304;2023-03-11T07:01:00;24.00;;;7.90;;
29938;SDS011;16799;50.844;5.304;2023-03-11T07:03:31;9.27;;;7.37;;
29938;SDS011;16799;50.844;5.304;2023-03-11T07:05:57;15.20;;;7.20;;
29938;SDS011;16799;50.844;5.304;2023-03-11T07:08:23;11.10;;;6.37;;
29938;SDS011;16799;50.844;5.304;2023-03-11T07:13:46;13.27;;;4.87;;
29938;SDS011;16799;50.844;5.304;2023-03-11T07:16:13;8.63;;;5.77;;
29938;SDS011;16799;50.844;5.304;2023-03-11T07:18:41;9.93;;;5.23;;
29938;SDS011;16799;50.844;5.304;2023-03-11T07:21:07;8.83;;;5.70;;
29938;SDS011;16799;50.844;5.304;2023-03-11T07:23:34;5.87;;;5.30;;
29938;SDS011;16799;50.844;5.304;2023-03-11T07:26:00;10.23;;;5.67;;
29938;SDS011;16799;50.844;5.304;2023-03-11T07:28:26;13.60;;;5.73;;
29938;SDS011;16799;50.844;5.304;2023-03-11T07:30:53;8.63;;;6.73;;
29938;SDS011;16799;50.844;5.304;2023-03-11T07:33:19;10.13;;;6.83;;
29938;SDS011;16799;50.844;5.304;2023-03-11T07:35:46;8.50;;;5.03;;
29938;SDS011;16799;50.844;5.304;2023-03-11T07:38:13;14.43;;;7.60;;
29938;SDS011;16799;50.844;5.304;2023-03-11T07:40:42;12.83;;;7.50;;
29938;SDS011;16799;50.844;5.304;2023-03-11T07:43:08;13.70;;;7.93;;
29938;SDS011;16799;50.844;5.304;2023-03-11T07:45:34;9.50;;;7.43;;
29938;SDS011;16799;50.844;5.304;2023-03-11T07:48:00;16.80;;;8.53;;
29938;SDS011;16799;50.844;5.304;2023-03-11T07:50:27;17.43;;;7.00;;
29938;SDS011;16799;50.844;5.304;2023-03-11T07:52:52;13.30;;;8.90;;
29938;SDS011;16799;50.844;5.304;2023-03-11T07:55:18;18.13;;;7.40;;
29938;SDS011;16799;50.844;5.304;2023-03-11T07:57:45;10.63;;;7.90;;
29938;SDS011;16799;50.844;5.304;2023-03-11T08:00:13;20.50;;;7.50;;
29938;SDS011;16799;50.844;5.304;2023-03-11T08:02:39;14.77;;;7.10;;
29938;SDS011;16799;50.844;5.304;2023-03-11T08:05:05;15.37;;;7.83;;
29938;SDS011;16799;50.844;5.304;2023-03-11T08:07:31;15.07;;;8.13;;
29938;SDS011;16799;50.844;5.304;2023-03-11T08:09:57;19.17;;;9.13;;
29938;SDS011;16799;50.844;5.304;2023-03-11T08:12:23;20.43;;;7.80;;
29938;SDS011;16799;50.844;5.304;2023-03-11T08:14:49;9.60;;;7.13;;
29938;SDS011;16799;50.844;5.304;2023-03-11T08:17:14;27.93;;;8.90;;
29938;SDS011;16799;50.844;5.304;2023-03-11T08:19:40;10.83;;;8.23;;
29938;SDS011;16799;50.844;5.304;2023-03-11T08:22:06;17.77;;;8.70;;
29938;SDS011;16799;50.844;5.304;2023-03-11T08:24:32;15.60;;;8.70;;
29938;SDS011;16799;50.844;5.304;2023-03-11T08:26:57;9.30;;;7.43;;
29938;SDS011;16799;50.844;5.304;2023-03-11T08:29:23;14.90;;;8.40;;
29938;SDS011;16799;50.844;5.304;2023-03-11T08:31:49;11.97;;;7.60;;
29938;SDS011;16799;50.844;5.304;2023-03-11T08:34:15;19.43;;;7.80;;
29938;SDS011;16799;50.844;5.304;2023-03-11T08:36:41;16.77;;;7.13;;
29938;SDS011;16799;50.844;5.304;2023-03-11T08:39:06;14.67;;;8.10;;
29938;SDS011;16799;50.844;5.304;2023-03-11T08:41:32;20.00;;;8.30;;
29938;SDS011;16799;50.844;5.304;2023-03-11T08:43:58;9.00;;;5.20;;
29938;SDS011;16799;50.844;5.304;2023-03-11T08:46:26;5.90;;;5.13;;
29938;SDS011;16799;50.844;5.304;2023-03-11T08:48:53;9.10;;;6.63;;
29938;SDS011;16799;50.844;5.304;2023-03-11T08:51:20;5.60;;;4.77;;
29938;SDS011;16799;50.844;5.304;2023-03-11T08:53:47;12.80;;;5.20;;
29938;SDS011;16799;50.844;5.304;2023-03-11T08:56:12;7.23;;;4.43;;
29938;SDS011;16799;50.844;5.304;2023-03-11T08:58:38;8.60;;;4.70;;
29938;SDS011;16799;50.844;5.304;2023-03-11T09:01:04;4.83;;;3.80;;
29938;SDS011;16799;50.844;5.304;2023-03-11T09:03:33;13.10;;;4.33;;
29938;SDS011;16799;50.844;5.304;2023-03-11T09:06:00;9.27;;;4.53;;
29938;SDS011;16799;50.844;5.304;2023-03-11T09:08:28;10.10;;;4.87;;
29938;SDS011;16799;50.844;5.304;2023-03-11T09:10:54;8.90;;;5.33;;
29938;SDS011;16799;50.844;5.304;2023-03-11T09:13:20;9.10;;;4.20;;
29938;SDS011;16799;50.844;5.304;2023-03-11T09:15:46;4.70;;;3.17;;
29938;SDS011;16799;50.844;5.304;2023-03-11T09:18:13;3.30;;;2.93;;
29938;SDS011;16799;50.844;5.304;2023-03-11T09:20:40;3.50;;;3.20;;
29938;SDS011;16799;50.844;5.304;2023-03-11T09:23:07;13.40;;;5.10;;
29938;SDS011;16799;50.844;5.304;2023-03-11T09:25:33;4.43;;;3.30;;
29938;SDS011;16799;50.844;5.304;2023-03-11T09:27:59;5.20;;;2.10;;
29938;SDS011;16799;50.844;5.304;2023-03-11T09:30:25;7.00;;;2.87;;
29938;SDS011;16799;50.844;5.304;2023-03-11T09:32:50;2.60;;;2.00;;
29938;SDS011;16799;50.844;5.304;2023-03-11T09:35:16;3.03;;;0.90;;
29938;SDS011;16799;50.844;5.304;2023-03-11T09:37:42;3.83;;;1.40;;
29938;SDS011;16799;50.844;5.304;2023-03-11T09:40:08;5.53;;;0.90;;
29938;SDS011;16799;50.844;5.304;2023-03-11T09:42:44;2.73;;;1.00;;
29938;SDS011;16799;50.844;5.304;2023-03-11T09:50:30;9.83;;;1.23;;
29938;SDS011;16799;50.844;5.304;2023-03-11T09:53:07;2.47;;;1.33;;
29938;SDS011;16799;50.844;5.304;2023-03-11T09:58:51;4.20;;;1.63;;
29938;SDS011;16799;50.844;5.304;2023-03-11T10:00:58;1.07;;;0.90;;
29938;SDS011;16799;50.844;5.304;2023-03-11T10:03:31;1.63;;;1.10;;
29938;SDS011;16799;50.844;5.304;2023-03-11T10:08:59;8.97;;;1.33;;
29938;SDS011;16799;50.844;5.304;2023-03-11T10:22:18;2.10;;;1.40;;
29938;SDS011;16799;50.844;5.304;2023-03-11T10:27:37;4.50;;;1.70;;
29938;SDS011;16799;50.844;5.304;2023-03-11T10:33:40;1.63;;;0.90;;
29938;SDS011;16799;50.844;5.304;2023-03-11T10:35:39;4.57;;;1.57;;
29938;SDS011;16799;50.844;5.304;2023-03-11T10:38:18;2.10;;;1.10;;
29938;SDS011;16799;50.844;5.304;2023-03-11T10:41:11;1.20;;;0.97;;
29938;SDS011;16799;50.844;5.304;2023-03-11T10:43:44;4.47;;;1.50;;
29938;SDS011;16799;50.844;5.304;2023-03-11T10:46:19;7.13;;;1.37;;
29938;SDS011;16799;50.844;5.304;2023-03-11T10:48:49;4.07;;;1.27;;
29938;SDS011;16799;50.844;5.304;2023-03-11T10:51:19;3.10;;;1.30;;
29938;SDS011;16799;50.844;5.304;2023-03-11T10:53:56;3.23;;;1.10;;
29938;SDS011;16799;50.844;5.304;2023-03-11T10:58:49;2.80;;;1.60;;
29938;SDS011;16799;50.844;5.304;2023-03-11T11:01:15;5.20;;;1.50;;
29938;SDS011;16799;50.844;5.304;2023-03-11T11:03:42;7.13;;;1.37;;
29938;SDS011;16799;50.844;5.304;2023-03-11T11:06:22;2.23;;;1.10;;
29938;SDS011;16799;50.844;5.304;2023-03-11T11:11:33;10.80;;;1.60;;
29938;SDS011;16799;50.844;5.304;2023-03-11T11:14:03;4.80;;;1.10;;
29938;SDS011;16799;50.844;5.304;2023-03-11T11:16:29;13.07;;;1.80;;
29938;SDS011;16799;50.844;5.304;2023-03-11T11:19:00;2.50;;;1.37;;
29938;SDS011;16799;50.844;5.304;2023-03-11T11:24:26;2.03;;;1.30;;
29938;SDS011;16799;50.844;5.304;2023-03-11T11:29:33;4.43;;;1.40;;
29938;SDS011;16799;50.844;5.304;2023-03-11T11:34:59;8.80;;;1.43;;
29938;SDS011;16799;50.844;5.304;2023-03-11T11:37:33;1.93;;;1.40;;
29938;SDS011;16799;50.844;5.304;2023-03-11T11:42:35;1.80;;;1.40;;
29938;SDS011;16799;50.844;5.304;2023-03-11T11:45:26;3.50;;;1.10;;
29938;SDS011;16799;50.844;5.304;2023-03-11T11:50:44;2.67;;;1.30;;
29938;SDS011;16799;50.844;5.304;2023-03-11T11:56:11;3.87;;;1.23;;
29938;SDS011;16799;50.844;5.304;2023-03-11T11:58:38;2.03;;;1.33;;
29938;SDS011;16799;50.844;5.304;2023-03-11T12:07:09;1.73;;;1.63;;
29938;SDS011;16799;50.844;5.304;2023-03-11T12:09:45;3.60;;;1.40;;
29938;SDS011;16799;50.844;5.304;2023-03-11T12:15:43;3.53;;;1.00;;
29938;SDS011;16799;50.844;5.304;2023-03-11T12:18:18;4.13;;;1.40;;
29938;SDS011;16799;50.844;5.304;2023-03-11T12:20:55;2.90;;;1.43;;
29938;SDS011;16799;50.844;5.304;2023-03-11T12:23:30;3.83;;;1.57;;
29938;SDS011;16799;50.844;5.304;2023-03-11T12:26:23;8.00;;;1.30;;
29938;SDS011;16799;50.844;5.304;2023-03-11T12:31:38;6.90;;;2.07;;
29938;SDS011;16799;50.844;5.304;2023-03-11T12:34:06;2.13;;;0.97;;
29938;SDS011;16799;50.844;5.304;2023-03-11T12:39:04;1.80;;;1.10;;
29938;SDS011;16799;50.844;5.304;2023-03-11T12:41:35;3.93;;;1.00;;
29938;SDS011;16799;50.844;5.304;2023-03-11T12:44:39;9.17;;;1.53;;
29938;SDS011;16799;50.844;5.304;2023-03-11T12:49:24;9.30;;;1.93;;
29938;SDS011;16799;50.844;5.304;2023-03-11T12:54:35;5.10;;;1.77;;
29938;SDS011;16799;50.844;5.304;2023-03-11T13:08:16;6.90;;;1.73;;
29938;SDS011;16799;50.844;5.304;2023-03-11T13:10:46;3.10;;;1.30;;
29938;SDS011;16799;50.844;5.304;2023-03-11T13:18:37;9.37;;;1.67;;
29938;SDS011;16799;50.844;5.304;2023-03-11T13:21:03;2.33;;;1.70;;
29938;SDS011;16799;50.844;5.304;2023-03-11T13:23:49;3.73;;;1.37;;
29938;SDS011;16799;50.844;5.304;2023-03-11T13:26:16;3.33;;;1.50;;
29938;SDS011;16799;50.844;5.304;2023-03-11T13:34:15;2.03;;;1.13;;
29938;SDS011;16799;50.844;5.304;2023-03-11T13:42:28;3.83;;;1.40;;
29938;SDS011;16799;50.844;5.304;2023-03-11T13:45:01;3.17;;;1.60;;
29938;SDS011;16799;50.844;5.304;2023-03-11T13:47:29;5.83;;;1.43;;
29938;SDS011;16799;50.844;5.304;2023-03-11T13:52:38;1.07;;;0.80;;
29938;SDS011;16799;50.844;5.304;2023-03-11T13:55:29;3.93;;;1.60;;
29938;SDS011;16799;50.844;5.304;2023-03-11T13:57:59;3.70;;;1.37;;
29938;SDS011;16799;50.844;5.304;2023-03-11T14:00:26;6.20;;;1.70;;
29938;SDS011;16799;50.844;5.304;2023-03-11T14:02:54;3.13;;;1.43;;
29938;SDS011;16799;50.844;5.304;2023-03-11T14:05:25;1.20;;;1.10;;
29938;SDS011;16799;50.844;5.304;2023-03-11T14:07:51;4.43;;;1.60;;
29938;SDS011;16799;50.844;5.304;2023-03-11T14:12:48;7.20;;;1.67;;
29938;SDS011;16799;50.844;5.304;2023-03-11T14:15:17;5.20;;;2.67;;
29938;SDS011;16799;50.844;5.304;2023-03-11T14:17:49;6.43;;;2.20;;
29938;SDS011;16799;50.844;5.304;2023-03-11T14:20:17;4.30;;;1.53;;
29938;SDS011;16799;50.844;5.304;2023-03-11T14:22:47;7.40;;;1.73;;
29938;SDS011;16799;50.844;5.304;2023-03-11T14:25:18;2.80;;;1.70;;
29938;SDS011;16799;50.844;5.304;2023-03-11T14:27:51;4.90;;;1.90;;
29938;SDS011;16799;50.844;5.304;2023-03-11T14:30:29;2.73;;;1.53;;
29938;SDS011;16799;50.844;5.304;2023-03-11T14:32:57;9.83;;;2.27;;
29938;SDS011;16799;50.844;5.304;2023-03-11T14:35:23;6.33;;;1.97;;
29938;SDS011;16799;50.844;5.304;2023-03-11T14:37:49;1.80;;;1.10;;
29938;SDS011;16799;50.844;5.304;2023-03-11T14:40:21;6.13;;;1.93;;
29938;SDS011;16799;50.844;5.304;2023-03-11T14:42:49;1.20;;;1.10;;
29938;SDS011;16799;50.844;5.304;2023-03-11T14:45:18;2.63;;;1.30;;
29938;SDS011;16799;50.844;5.304;2023-03-11T14:47:52;3.50;;;1.90;;
29938;SDS011;16799;50.844;5.304;2023-03-11T14:50:20;6.73;;;1.87;;
29938;SDS011;16799;50.844;5.304;2023-03-11T14:52:53;4.93;;;1.57;;
29938;SDS011;16799;50.844;5.304;2023-03-11T14:55:57;3.10;;;1.60;;
29938;SDS011;16799;50.844;5.304;2023-03-11T15:06:23;3.00;;;1.53;;
29938;SDS011;16799;50.844;5.304;2023-03-11T15:09:04;4.30;;;1.00;;
29938;SDS011;16799;50.844;5.304;2023-03-11T15:17:17;2.20;;;1.17;;
29938;SDS011;16799;50.844;5.304;2023-03-11T15:19:50;4.23;;;1.10;;
29938;SDS011;16799;50.844;5.304;2023-03-11T15:24:58;1.63;;;0.90;;
29938;SDS011;16799;50.844;5.304;2023-03-11T15:27:27;7.23;;;1.70;;
29938;SDS011;16799;50.844;5.304;2023-03-11T15:30:04;2.53;;;1.33;;
29938;SDS011;16799;50.844;5.304;2023-03-11T15:32:50;2.97;;;1.27;;
29938;SDS011;16799;50.844;5.304;2023-03-11T15:35:17;4.27;;;1.73;;
29938;SDS011;16799;50.844;5.304;2023-03-11T15:37:47;8.63;;;1.80;;
29938;SDS011;16799;50.844;5.304;2023-03-11T15:40:21;3.27;;;1.37;;
29938;SDS011;16799;50.844;5.304;2023-03-11T15:42:47;2.23;;;1.30;;
29938;SDS011;16799;50.844;5.304;2023-03-11T15:45:17;2.07;;;1.30;;
29938;SDS011;16799;50.844;5.304;2023-03-11T15:47:45;8.20;;;1.20;;
29938;SDS011;16799;50.844;5.304;2023-03-11T15:50:16;3.90;;;1.37;;
29938;SDS011;16799;50.844;5.304;2023-03-11T15:52:51;4.67;;;1.20;;
29938;SDS011;16799;50.844;5.304;2023-03-11T15:55:19;4.73;;;1.53;;
29938;SDS011;16799;50.844;5.304;2023-03-11T15:57:46;2.77;;;1.37;;
29938;SDS011;16799;50.844;5.304;2023-03-11T16:00:17;5.20;;;1.30;;
29938;SDS011;16799;50.844;5.304;2023-03-11T16:02:46;2.43;;;1.20;;
29938;SDS011;16799;50.844;5.304;2023-03-11T16:05:17;3.70;;;1.30;;
29938;SDS011;16799;50.844;5.304;2023-03-11T16:07:44;2.53;;;0.97;;
29938;SDS011;16799;50.844;5.304;2023-03-11T16:10:11;5.47;;;1.40;;
29938;SDS011;16799;50.844;5.304;2023-03-11T16:12:38;5.33;;;1.27;;
29938;SDS011;16799;50.844;5.304;2023-03-11T16:15:09;4.13;;;1.30;;
29938;SDS011;16799;50.844;5.304;2023-03-11T16:17:44;8.23;;;2.60;;
29938;SDS011;16799;50.844;5.304;2023-03-11T16:20:10;2.43;;;1.40;;
29938;SDS011;16799;50.844;5.304;2023-03-11T16:22:36;7.83;;;1.80;;
29938;SDS011;16799;50.844;5.304;2023-03-11T16:25:02;6.50;;;2.40;;
29938;SDS011;16799;50.844;5.304;2023-03-11T16:27:28;6.13;;;1.47;;
29938;SDS011;16799;50.844;5.304;2023-03-11T16:29:54;5.10;;;1.30;;
29938;SDS011;16799;50.844;5.304;2023-03-11T16:32:20;5.83;;;1.37;;
29938;SDS011;16799;50.844;5.304;2023-03-11T16:34:46;2.80;;;1.20;;
29938;SDS011;16799;50.844;5.304;2023-03-11T16:37:15;1.27;;;1.17;;
29938;SDS011;16799;50.844;5.304;2023-03-11T16:39:44;3.30;;;1.10;;
29938;SDS011;16799;50.844;5.304;2023-03-11T16:42:11;2.63;;;1.50;;
29938;SDS011;16799;50.844;5.304;2023-03-11T16:44:37;2.77;;;1.17;;
29938;SDS011;16799;50.844;5.304;2023-03-11T16:47:03;5.20;;;2.10;;
29938;SDS011;16799;50.844;5.304;2023-03-11T16:49:29;2.00;;;1.70;;
29938;SDS011;16799;50.844;5.304;2023-03-11T16:51:55;4.83;;;1.53;;
29938;SDS011;16799;50.844;5.304;2023-03-11T16:54:20;5.93;;;1.73;;
29938;SDS011;16799;50.844;5.304;2023-03-11T16:56:46;2.20;;;1.27;;
29938;SDS011;16799;50.844;5.304;2023-03-11T16:59:11;7.47;;;2.70;;